Terminal Aerodrome Forecast
Issued by NWS

Home | Current Version | Previous Version | Graphics & Text | Print | Product List | Glossary On
Versions: 1 2 3 4 5 6 7 8 9 10 11 12 13 14 15 16 17 18 19
984
FTUS43 KICT 251734
TAFCNU
TAF
KCNU 251734Z 2518/2618 15006KT P6SM SCT100
     FM252100 22010KT P6SM VCTS SCT030 BKN050CB
     FM260200 03007KT 5SM -TSRA SCT020 BKN035CB
     FM260900 08008KT P6SM VCTS SCT020 BKN035CB
     FM261400 12008KT P6SM SCT030 BKN050=

USA.gov is the U.S. government's official web portal to all federal, state and local government web resources and services.